Rechercher aéroport 
image banner adimage banner adimage banner ad
image banner ad

94CL - Loma Linda University Medical Center

Situé à Loma Linda, United States

ICAO - 94CL, IATA -

Données fournies par Airmate  

Information générale

Coordonnées: N34°3'1" W117°15'51"
Élévation : 1223 feet MSL.
Variation magnétique : 14° East
Voir autres Aéroports à California

Données opérationnelles

Special qualification required
Heure actuelle UTC:
Heure actuelle locale:
Météo à : KSBD - San Bernardino Intl ( 6 km )
METAR: KSBD 212054Z 25004KT 7SM CLR 39/00 A3006
TAF: KSBD 211720Z 2118/2218 VRB05KT P6SM SKC FM212000 26011KT P6SM SKC FM220400 VRB05KT P6SM SKC
Voir NOTAMs / SUP AIP / TFR affectant cet aéroport [VIEW]
Fréquences de communication: [VIEW]

Pistes:

Coordonnées de l'aéroport

Adresse: Loma Linda United States

Vue satellite de 94CL